XBFGP MMPN-MMZO
Flight info
| Callsign | XBFGP |
|---|---|
| Flight time | 0h 32m |
| Altitude | 14500 |
| Route | MMPN DCT MMZO |
| Aircraft | TBM9/L-V/N |
Departure
| Time | 2026-05-07 05:46 |
|---|---|
| Airport | Uruapan - Licenciado y General Ignacio Lopez Rayon International Airport (MMPN) |
Arrival
| Time | 2026-05-07 06:18 |
|---|---|
| Airport | Playa de Oro International Airport (MMZO) |
| Time | Latitude | Longitude | Altitude | Speed | Heading |
|---|---|---|---|---|---|
| 2026-05-07 05:42 | 19.40377 | -102.03768 | 5235 ft | 0 kts | 310° |
| 2026-05-07 05:44 | 19.40365 | -102.03782 | 5253 ft | 13 kts | 198° |
| 2026-05-07 05:44 | 19.40258 | -102.03724 | 5252 ft | 27 kts | 164° |
| 2026-05-07 05:44 | 19.40146 | -102.03577 | 5251 ft | 27 kts | 172° |
| 2026-05-07 05:45 | 19.39848 | -102.03757 | 5243 ft | 75 kts | 211° |
| 2026-05-07 05:45 | 19.39302 | -102.04115 | 5171 ft | 107 kts | 211° |
| 2026-05-07 05:45 | 19.38618 | -102.04538 | 5279 ft | 115 kts | 213° |
| 2026-05-07 05:45 | 19.37859 | -102.05097 | 5442 ft | 146 kts | 217° |
| 2026-05-07 05:46 | 19.37016 | -102.05733 | 5952 ft | 157 kts | 217° |
| 2026-05-07 05:46 | 19.36084 | -102.06435 | 6336 ft | 171 kts | 216° |
| 2026-05-07 05:46 | 19.35091 | -102.07192 | 6779 ft | 180 kts | 217° |
| 2026-05-07 05:46 | 19.34061 | -102.07999 | 7247 ft | 188 kts | 217° |
| 2026-05-07 05:47 | 19.33167 | -102.09021 | 7733 ft | 195 kts | 246° |
| 2026-05-07 05:47 | 19.33066 | -102.10444 | 8228 ft | 201 kts | 286° |
| 2026-05-07 05:47 | 19.33572 | -102.11843 | 8727 ft | 206 kts | 293° |
| 2026-05-07 05:47 | 19.34133 | -102.13262 | 9222 ft | 212 kts | 293° |
| 2026-05-07 05:48 | 19.34712 | -102.14718 | 9727 ft | 218 kts | 293° |
| 2026-05-07 05:48 | 19.35299 | -102.16220 | 10204 ft | 224 kts | 292° |
| 2026-05-07 05:48 | 19.35763 | -102.17784 | 10641 ft | 228 kts | 281° |
| 2026-05-07 05:48 | 19.35917 | -102.19454 | 11103 ft | 228 kts | 271° |
| 2026-05-07 05:49 | 19.35890 | -102.21156 | 11569 ft | 232 kts | 266° |
| 2026-05-07 05:49 | 19.35755 | -102.22865 | 12044 ft | 233 kts | 264° |
| 2026-05-07 05:49 | 19.35600 | -102.24589 | 12526 ft | 236 kts | 264° |
| 2026-05-07 05:49 | 19.35448 | -102.26328 | 13009 ft | 238 kts | 264° |
| 2026-05-07 05:50 | 19.35296 | -102.28056 | 13499 ft | 239 kts | 264° |
| 2026-05-07 05:50 | 19.35145 | -102.29824 | 13984 ft | 243 kts | 265° |
| 2026-05-07 05:50 | 19.35000 | -102.31619 | 14330 ft | 250 kts | 264° |
| 2026-05-07 05:50 | 19.34851 | -102.33530 | 14357 ft | 271 kts | 265° |
| 2026-05-07 05:51 | 19.34700 | -102.35576 | 14359 ft | 284 kts | 265° |
| 2026-05-07 05:51 | 19.34549 | -102.37683 | 14443 ft | 289 kts | 265° |
| 2026-05-07 05:51 | 19.34402 | -102.39817 | 14572 ft | 293 kts | 265° |
| 2026-05-07 05:51 | 19.34248 | -102.41984 | 14605 ft | 297 kts | 265° |
| 2026-05-07 05:52 | 19.34095 | -102.44192 | 14607 ft | 303 kts | 265° |
| 2026-05-07 05:52 | 19.33946 | -102.46429 | 14601 ft | 305 kts | 265° |
| 2026-05-07 05:52 | 19.33794 | -102.48673 | 14605 ft | 306 kts | 265° |
| 2026-05-07 05:52 | 19.33648 | -102.50925 | 14602 ft | 307 kts | 265° |
| 2026-05-07 05:53 | 19.33508 | -102.53187 | 14599 ft | 308 kts | 265° |
| 2026-05-07 05:53 | 19.33368 | -102.55425 | 14594 ft | 309 kts | 265° |
| 2026-05-07 05:53 | 19.33226 | -102.57691 | 14587 ft | 309 kts | 265° |
| 2026-05-07 05:53 | 19.33084 | -102.59965 | 14584 ft | 309 kts | 265° |
| 2026-05-07 05:54 | 19.32943 | -102.62238 | 14582 ft | 309 kts | 265° |
| 2026-05-07 05:54 | 19.32802 | -102.64517 | 14578 ft | 310 kts | 265° |
| 2026-05-07 05:54 | 19.32664 | -102.66793 | 14576 ft | 309 kts | 265° |
| 2026-05-07 05:54 | 19.32615 | -102.69076 | 14580 ft | 310 kts | 273° |
| 2026-05-07 05:55 | 19.32898 | -102.71316 | 14578 ft | 311 kts | 278° |
| 2026-05-07 05:55 | 19.33127 | -102.73590 | 14562 ft | 309 kts | 270° |
| 2026-05-07 05:55 | 19.32986 | -102.75854 | 14566 ft | 308 kts | 261° |
| 2026-05-07 05:55 | 19.32659 | -102.78099 | 14573 ft | 308 kts | 259° |
| 2026-05-07 05:56 | 19.32354 | -102.80347 | 14573 ft | 309 kts | 262° |
| 2026-05-07 05:56 | 19.32159 | -102.82618 | 14576 ft | 310 kts | 264° |
| 2026-05-07 05:56 | 19.31972 | -102.84894 | 14576 ft | 309 kts | 263° |
| 2026-05-07 05:56 | 19.31745 | -102.87135 | 14574 ft | 309 kts | 262° |
| 2026-05-07 05:57 | 19.31509 | -102.89399 | 14577 ft | 310 kts | 262° |
| 2026-05-07 05:57 | 19.31292 | -102.91670 | 14575 ft | 310 kts | 263° |
| 2026-05-07 05:57 | 19.31076 | -102.93937 | 14574 ft | 310 kts | 262° |
| 2026-05-07 05:57 | 19.30851 | -102.96207 | 14580 ft | 310 kts | 262° |
| 2026-05-07 05:58 | 19.30627 | -102.98473 | 14583 ft | 310 kts | 262° |
| 2026-05-07 05:58 | 19.30405 | -103.00744 | 14585 ft | 310 kts | 262° |
| 2026-05-07 05:58 | 19.30184 | -103.03014 | 14587 ft | 310 kts | 262° |
| 2026-05-07 05:58 | 19.29959 | -103.05281 | 14586 ft | 310 kts | 262° |
| 2026-05-07 05:59 | 19.29732 | -103.07551 | 14590 ft | 310 kts | 262° |
| 2026-05-07 05:59 | 19.29510 | -103.09816 | 14599 ft | 309 kts | 262° |
| 2026-05-07 05:59 | 19.29289 | -103.12080 | 14602 ft | 310 kts | 262° |
| 2026-05-07 05:59 | 19.29067 | -103.14352 | 14599 ft | 310 kts | 262° |
| 2026-05-07 06:00 | 19.28838 | -103.16624 | 14599 ft | 309 kts | 262° |
| 2026-05-07 06:00 | 19.28613 | -103.18857 | 14597 ft | 308 kts | 262° |
| 2026-05-07 06:00 | 19.28388 | -103.21111 | 14603 ft | 308 kts | 262° |
| 2026-05-07 06:00 | 19.28167 | -103.23366 | 14611 ft | 308 kts | 262° |
| 2026-05-07 06:01 | 19.27947 | -103.25623 | 14607 ft | 308 kts | 262° |
| 2026-05-07 06:01 | 19.27718 | -103.27876 | 14611 ft | 307 kts | 262° |
| 2026-05-07 06:01 | 19.27495 | -103.30131 | 14610 ft | 309 kts | 262° |
| 2026-05-07 06:01 | 19.27265 | -103.32396 | 14609 ft | 310 kts | 262° |
| 2026-05-07 06:02 | 19.27041 | -103.34660 | 14608 ft | 309 kts | 262° |
| 2026-05-07 06:02 | 19.26811 | -103.36927 | 14606 ft | 309 kts | 262° |
| 2026-05-07 06:02 | 19.26584 | -103.39188 | 14605 ft | 309 kts | 262° |
| 2026-05-07 06:02 | 19.26360 | -103.41446 | 14605 ft | 308 kts | 262° |
| 2026-05-07 06:03 | 19.26132 | -103.43695 | 14606 ft | 307 kts | 262° |
| 2026-05-07 06:03 | 19.25904 | -103.45944 | 14604 ft | 307 kts | 262° |
| 2026-05-07 06:03 | 19.25678 | -103.48190 | 14605 ft | 307 kts | 262° |
| 2026-05-07 06:03 | 19.25455 | -103.50421 | 14602 ft | 308 kts | 262° |
| 2026-05-07 06:04 | 19.25228 | -103.52669 | 14601 ft | 307 kts | 262° |
| 2026-05-07 06:04 | 19.24999 | -103.54917 | 14598 ft | 307 kts | 262° |
| 2026-05-07 06:04 | 19.24842 | -103.57174 | 14596 ft | 307 kts | 266° |
| 2026-05-07 06:04 | 19.24807 | -103.59436 | 14600 ft | 307 kts | 268° |
| 2026-05-07 06:05 | 19.24798 | -103.61698 | 14600 ft | 307 kts | 268° |
| 2026-05-07 06:05 | 19.24796 | -103.63956 | 14593 ft | 307 kts | 268° |
| 2026-05-07 06:05 | 19.24794 | -103.66245 | 14282 ft | 317 kts | 269° |
| 2026-05-07 06:05 | 19.24800 | -103.68610 | 13923 ft | 324 kts | 269° |
| 2026-05-07 06:06 | 19.24796 | -103.71008 | 13565 ft | 327 kts | 269° |
| 2026-05-07 06:06 | 19.24784 | -103.73420 | 13176 ft | 327 kts | 269° |
| 2026-05-07 06:06 | 19.24771 | -103.75797 | 12816 ft | 327 kts | 269° |
| 2026-05-07 06:06 | 19.24751 | -103.78198 | 12450 ft | 325 kts | 269° |
| 2026-05-07 06:07 | 19.24721 | -103.80585 | 12086 ft | 323 kts | 269° |
| 2026-05-07 06:07 | 19.24686 | -103.82957 | 11720 ft | 321 kts | 269° |
| 2026-05-07 06:07 | 19.24645 | -103.85313 | 11366 ft | 320 kts | 269° |
| 2026-05-07 06:07 | 19.24610 | -103.87661 | 11010 ft | 317 kts | 269° |
| 2026-05-07 06:08 | 19.24574 | -103.89988 | 10660 ft | 315 kts | 269° |
| 2026-05-07 06:08 | 19.24538 | -103.92294 | 10317 ft | 313 kts | 269° |
| 2026-05-07 06:08 | 19.24498 | -103.94585 | 9973 ft | 310 kts | 269° |
| 2026-05-07 06:08 | 19.24469 | -103.96093 | 9737 ft | 309 kts | 269° |
| 2026-05-07 06:09 | 19.24408 | -103.99125 | 9229 ft | 306 kts | 269° |
| 2026-05-07 06:09 | 19.24372 | -104.00614 | 8982 ft | 305 kts | 269° |
| 2026-05-07 06:09 | 19.24313 | -104.02855 | 8620 ft | 303 kts | 269° |
| 2026-05-07 06:09 | 19.24247 | -104.05080 | 8259 ft | 303 kts | 269° |
| 2026-05-07 06:10 | 19.24121 | -104.08029 | 7778 ft | 301 kts | 269° |
| 2026-05-07 06:10 | 19.24028 | -104.10237 | 7423 ft | 300 kts | 269° |
| 2026-05-07 06:10 | 19.23971 | -104.11725 | 7185 ft | 298 kts | 269° |
| 2026-05-07 06:10 | 19.23873 | -104.13891 | 6855 ft | 298 kts | 269° |
| 2026-05-07 06:11 | 19.23770 | -104.16080 | 6498 ft | 297 kts | 269° |
| 2026-05-07 06:11 | 19.23664 | -104.18253 | 6144 ft | 295 kts | 269° |
| 2026-05-07 06:11 | 19.23556 | -104.20418 | 5776 ft | 294 kts | 269° |
| 2026-05-07 06:11 | 19.23451 | -104.22575 | 5414 ft | 293 kts | 269° |
| 2026-05-07 06:12 | 19.23351 | -104.24723 | 5060 ft | 291 kts | 269° |
| 2026-05-07 06:12 | 19.23200 | -104.26854 | 4699 ft | 290 kts | 265° |
| 2026-05-07 06:12 | 19.22942 | -104.28974 | 4321 ft | 289 kts | 263° |
| 2026-05-07 06:12 | 19.22684 | -104.31078 | 3968 ft | 288 kts | 264° |
| 2026-05-07 06:13 | 19.22418 | -104.33175 | 3596 ft | 286 kts | 263° |
| 2026-05-07 06:13 | 19.22079 | -104.35257 | 3235 ft | 286 kts | 261° |
| 2026-05-07 06:13 | 19.21707 | -104.37316 | 2943 ft | 283 kts | 260° |
| 2026-05-07 06:13 | 19.21340 | -104.39328 | 2884 ft | 275 kts | 259° |
| 2026-05-07 06:14 | 19.20788 | -104.41242 | 2807 ft | 271 kts | 243° |
| 2026-05-07 06:14 | 19.19557 | -104.42724 | 2713 ft | 270 kts | 216° |
| 2026-05-07 06:14 | 19.17883 | -104.43550 | 2647 ft | 270 kts | 199° |
| 2026-05-07 06:14 | 19.16166 | -104.44174 | 2521 ft | 244 kts | 205° |
| 2026-05-07 06:15 | 19.14797 | -104.45069 | 2249 ft | 215 kts | 222° |
| 2026-05-07 06:15 | 19.14095 | -104.46306 | 2202 ft | 184 kts | 261° |
| 2026-05-07 06:15 | 19.14217 | -104.47543 | 2132 ft | 158 kts | 287° |
| 2026-05-07 06:15 | 19.14491 | -104.48602 | 2052 ft | 142 kts | 281° |
| 2026-05-07 06:16 | 19.14595 | -104.49684 | 1985 ft | 153 kts | 275° |
| 2026-05-07 06:16 | 19.14495 | -104.50843 | 1673 ft | 174 kts | 259° |
| 2026-05-07 06:16 | 19.14235 | -104.51988 | 1154 ft | 146 kts | 256° |
| 2026-05-07 06:16 | 19.14033 | -104.52970 | 613 ft | 133 kts | 264° |
| 2026-05-07 06:17 | 19.13979 | -104.53909 | 300 ft | 121 kts | 276° |
| 2026-05-07 06:17 | 19.14154 | -104.54693 | 89 ft | 95 kts | 287° |
| 2026-05-07 06:17 | 19.14315 | -104.55272 | 21 ft | 71 kts | 283° |
| 2026-05-07 06:17 | 19.14475 | -104.55758 | 21 ft | 64 kts | 308° |
| 2026-05-07 06:18 | 19.14690 | -104.56000 | 23 ft | 18 kts | 335° |
| 2026-05-07 06:18 | 19.14737 | -104.55993 | 22 ft | 0 kts | 15° |